sensor_id;sensor_type;location;lat;lon;timestamp;P1;durP1;ratioP1;P2;durP2;ratioP2
16784;SDS011;8509;52.178;5.404;2023-06-26T00:00:29;1.33;;;1.23;;
16784;SDS011;8509;52.178;5.404;2023-06-26T00:02:54;2.58;;;1.75;;
16784;SDS011;8509;52.178;5.404;2023-06-26T00:05:20;1.50;;;1.40;;
16784;SDS011;8509;52.178;5.404;2023-06-26T00:07:46;1.50;;;1.40;;
16784;SDS011;8509;52.178;5.404;2023-06-26T00:10:11;1.48;;;1.38;;
16784;SDS011;8509;52.178;5.404;2023-06-26T00:12:37;1.70;;;1.58;;
16784;SDS011;8509;52.178;5.404;2023-06-26T00:15:03;1.50;;;1.38;;
16784;SDS011;8509;52.178;5.404;2023-06-26T00:17:29;1.73;;;1.48;;
16784;SDS011;8509;52.178;5.404;2023-06-26T00:20:01;1.77;;;1.67;;
16784;SDS011;8509;52.178;5.404;2023-06-26T00:22:27;2.53;;;1.60;;
16784;SDS011;8509;52.178;5.404;2023-06-26T00:24:53;1.30;;;1.20;;
16784;SDS011;8509;52.178;5.404;2023-06-26T00:27:19;1.35;;;1.25;;
16784;SDS011;8509;52.178;5.404;2023-06-26T00:29:44;1.17;;;1.13;;
16784;SDS011;8509;52.178;5.404;2023-06-26T00:32:10;1.35;;;1.25;;
16784;SDS011;8509;52.178;5.404;2023-06-26T00:34:36;1.83;;;1.38;;
16784;SDS011;8509;52.178;5.404;2023-06-26T00:37:01;1.42;;;1.33;;
16784;SDS011;8509;52.178;5.404;2023-06-26T00:39:27;1.52;;;1.15;;
16784;SDS011;8509;52.178;5.404;2023-06-26T00:41:53;1.30;;;1.20;;
16784;SDS011;8509;52.178;5.404;2023-06-26T00:44:19;1.83;;;1.30;;
16784;SDS011;8509;52.178;5.404;2023-06-26T00:46:45;2.58;;;1.73;;
16784;SDS011;8509;52.178;5.404;2023-06-26T00:49:11;1.30;;;1.02;;
16784;SDS011;8509;52.178;5.404;2023-06-26T00:51:37;1.80;;;1.52;;
16784;SDS011;8509;52.178;5.404;2023-06-26T00:54:03;1.35;;;1.25;;
16784;SDS011;8509;52.178;5.404;2023-06-26T00:56:29;1.30;;;1.02;;
16784;SDS011;8509;52.178;5.404;2023-06-26T00:58:56;1.35;;;1.25;;
16784;SDS011;8509;52.178;5.404;2023-06-26T01:01:22;1.10;;;1.00;;
16784;SDS011;8509;52.178;5.404;2023-06-26T01:03:51;1.23;;;1.13;;
16784;SDS011;8509;52.178;5.404;2023-06-26T01:06:18;2.22;;;1.63;;
16784;SDS011;8509;52.178;5.404;2023-06-26T01:08:46;1.15;;;1.05;;
16784;SDS011;8509;52.178;5.404;2023-06-26T01:11:13;1.38;;;1.27;;
16784;SDS011;8509;52.178;5.404;2023-06-26T01:13:40;1.55;;;1.30;;
16784;SDS011;8509;52.178;5.404;2023-06-26T01:16:09;0.90;;;0.80;;
16784;SDS011;8509;52.178;5.404;2023-06-26T01:18:36;1.48;;;1.23;;
16784;SDS011;8509;52.178;5.404;2023-06-26T01:21:07;1.65;;;1.02;;
16784;SDS011;8509;52.178;5.404;2023-06-26T01:26:21;1.45;;;1.13;;
16784;SDS011;8509;52.178;5.404;2023-06-26T01:28:49;1.30;;;1.20;;
16784;SDS011;8509;52.178;5.404;2023-06-26T01:31:16;1.65;;;1.27;;
16784;SDS011;8509;52.178;5.404;2023-06-26T01:33:43;1.67;;;1.48;;
16784;SDS011;8509;52.178;5.404;2023-06-26T01:36:09;1.40;;;1.27;;
16784;SDS011;8509;52.178;5.404;2023-06-26T01:38:35;1.60;;;1.40;;
16784;SDS011;8509;52.178;5.404;2023-06-26T01:41:02;1.80;;;1.25;;
16784;SDS011;8509;52.178;5.404;2023-06-26T01:46:21;1.13;;;1.02;;
16784;SDS011;8509;52.178;5.404;2023-06-26T01:49:01;1.15;;;1.08;;
16784;SDS011;8509;52.178;5.404;2023-06-26T01:51:35;1.60;;;1.50;;
16784;SDS011;8509;52.178;5.404;2023-06-26T01:54:08;1.05;;;0.95;;
16784;SDS011;8509;52.178;5.404;2023-06-26T01:56:38;0.85;;;0.77;;
16784;SDS011;8509;52.178;5.404;2023-06-26T01:59:05;1.40;;;1.30;;
16784;SDS011;8509;52.178;5.404;2023-06-26T02:01:32;1.45;;;1.27;;
16784;SDS011;8509;52.178;5.404;2023-06-26T02:03:59;1.63;;;1.40;;
16784;SDS011;8509;52.178;5.404;2023-06-26T02:06:25;1.42;;;1.10;;
16784;SDS011;8509;52.178;5.404;2023-06-26T02:08:50;2.28;;;1.20;;
16784;SDS011;8509;52.178;5.404;2023-06-26T02:11:16;3.70;;;1.27;;
16784;SDS011;8509;52.178;5.404;2023-06-26T02:13:42;1.00;;;0.90;;
16784;SDS011;8509;52.178;5.404;2023-06-26T02:16:08;1.60;;;1.25;;
16784;SDS011;8509;52.178;5.404;2023-06-26T02:18:33;1.30;;;1.02;;
16784;SDS011;8509;52.178;5.404;2023-06-26T02:20:59;1.75;;;1.10;;
16784;SDS011;8509;52.178;5.404;2023-06-26T02:23:27;1.15;;;1.05;;
16784;SDS011;8509;52.178;5.404;2023-06-26T02:25:52;1.27;;;1.17;;
16784;SDS011;8509;52.178;5.404;2023-06-26T02:28:18;7.05;;;1.33;;
16784;SDS011;8509;52.178;5.404;2023-06-26T02:30:44;2.63;;;1.10;;
16784;SDS011;8509;52.178;5.404;2023-06-26T02:33:09;1.10;;;0.93;;
16784;SDS011;8509;52.178;5.404;2023-06-26T02:35:35;1.52;;;1.42;;
16784;SDS011;8509;52.178;5.404;2023-06-26T02:38:01;2.92;;;1.08;;
16784;SDS011;8509;52.178;5.404;2023-06-26T02:40:26;1.45;;;1.15;;
16784;SDS011;8509;52.178;5.404;2023-06-26T02:42:52;2.05;;;1.02;;
16784;SDS011;8509;52.178;5.404;2023-06-26T02:45:18;0.80;;;0.80;;
16784;SDS011;8509;52.178;5.404;2023-06-26T02:47:44;1.02;;;0.90;;
16784;SDS011;8509;52.178;5.404;2023-06-26T02:50:09;1.63;;;1.10;;
16784;SDS011;8509;52.178;5.404;2023-06-26T02:52:35;1.45;;;1.00;;
16784;SDS011;8509;52.178;5.404;2023-06-26T02:55:01;0.90;;;0.85;;
16784;SDS011;8509;52.178;5.404;2023-06-26T02:57:26;0.90;;;0.77;;
16784;SDS011;8509;52.178;5.404;2023-06-26T02:59:52;1.35;;;1.25;;
16784;SDS011;8509;52.178;5.404;2023-06-26T03:02:18;1.95;;;1.27;;
16784;SDS011;8509;52.178;5.404;2023-06-26T03:04:43;5.22;;;1.45;;
16784;SDS011;8509;52.178;5.404;2023-06-26T03:07:09;4.65;;;1.45;;
16784;SDS011;8509;52.178;5.404;2023-06-26T03:09:35;1.30;;;1.10;;
16784;SDS011;8509;52.178;5.404;2023-06-26T03:12:00;1.10;;;0.98;;
16784;SDS011;8509;52.178;5.404;2023-06-26T03:14:26;2.58;;;1.10;;
16784;SDS011;8509;52.178;5.404;2023-06-26T03:16:53;0.70;;;0.70;;
16784;SDS011;8509;52.178;5.404;2023-06-26T03:19:22;1.67;;;1.27;;
16784;SDS011;8509;52.178;5.404;2023-06-26T03:21:47;1.67;;;1.33;;
16784;SDS011;8509;52.178;5.404;2023-06-26T03:24:13;4.68;;;1.08;;
16784;SDS011;8509;52.178;5.404;2023-06-26T03:26:39;1.00;;;0.88;;
16784;SDS011;8509;52.178;5.404;2023-06-26T03:29:04;1.70;;;1.33;;
16784;SDS011;8509;52.178;5.404;2023-06-26T03:31:30;1.58;;;0.95;;
16784;SDS011;8509;52.178;5.404;2023-06-26T03:33:56;4.55;;;1.55;;
16784;SDS011;8509;52.178;5.404;2023-06-26T03:36:22;2.20;;;1.45;;
16784;SDS011;8509;52.178;5.404;2023-06-26T03:38:47;1.85;;;1.30;;
16784;SDS011;8509;52.178;5.404;2023-06-26T03:41:13;1.42;;;1.08;;
16784;SDS011;8509;52.178;5.404;2023-06-26T03:43:39;10.95;;;1.63;;
16784;SDS011;8509;52.178;5.404;2023-06-26T03:46:04;3.35;;;2.05;;
16784;SDS011;8509;52.178;5.404;2023-06-26T03:48:30;2.05;;;1.35;;
16784;SDS011;8509;52.178;5.404;2023-06-26T03:50:56;2.28;;;1.45;;
16784;SDS011;8509;52.178;5.404;2023-06-26T03:53:22;4.85;;;1.15;;
16784;SDS011;8509;52.178;5.404;2023-06-26T03:55:49;3.72;;;1.40;;
16784;SDS011;8509;52.178;5.404;2023-06-26T03:58:15;5.97;;;2.03;;
16784;SDS011;8509;52.178;5.404;2023-06-26T04:00:40;3.50;;;1.70;;
16784;SDS011;8509;52.178;5.404;2023-06-26T04:03:06;4.90;;;1.05;;
16784;SDS011;8509;52.178;5.404;2023-06-26T04:05:32;2.30;;;1.65;;
16784;SDS011;8509;52.178;5.404;2023-06-26T04:07:57;7.07;;;1.63;;
16784;SDS011;8509;52.178;5.404;2023-06-26T04:10:23;2.10;;;1.40;;
16784;SDS011;8509;52.178;5.404;2023-06-26T04:12:49;3.05;;;1.48;;
16784;SDS011;8509;52.178;5.404;2023-06-26T04:15:14;2.53;;;1.40;;
16784;SDS011;8509;52.178;5.404;2023-06-26T04:17:40;3.97;;;1.95;;
16784;SDS011;8509;52.178;5.404;2023-06-26T04:20:07;7.85;;;1.48;;
16784;SDS011;8509;52.178;5.404;2023-06-26T04:22:34;6.82;;;1.50;;
16784;SDS011;8509;52.178;5.404;2023-06-26T04:25:03;2.47;;;1.00;;
16784;SDS011;8509;52.178;5.404;2023-06-26T04:27:29;1.30;;;1.10;;
16784;SDS011;8509;52.178;5.404;2023-06-26T04:29:55;3.75;;;2.05;;
16784;SDS011;8509;52.178;5.404;2023-06-26T04:32:21;1.30;;;1.20;;
16784;SDS011;8509;52.178;5.404;2023-06-26T04:34:46;4.05;;;1.35;;
16784;SDS011;8509;52.178;5.404;2023-06-26T04:37:13;2.70;;;1.10;;
16784;SDS011;8509;52.178;5.404;2023-06-26T04:39:41;2.13;;;1.52;;
16784;SDS011;8509;52.178;5.404;2023-06-26T04:42:07;0.82;;;0.82;;
16784;SDS011;8509;52.178;5.404;2023-06-26T04:44:38;0.68;;;0.68;;
16784;SDS011;8509;52.178;5.404;2023-06-26T04:47:06;3.22;;;1.17;;
16784;SDS011;8509;52.178;5.404;2023-06-26T04:49:31;1.38;;;1.27;;
16784;SDS011;8509;52.178;5.404;2023-06-26T04:51:57;1.50;;;1.00;;
16784;SDS011;8509;52.178;5.404;2023-06-26T04:54:25;1.10;;;0.80;;
16784;SDS011;8509;52.178;5.404;2023-06-26T04:56:51;2.88;;;1.42;;
16784;SDS011;8509;52.178;5.404;2023-06-26T04:59:16;0.77;;;0.77;;
16784;SDS011;8509;52.178;5.404;2023-06-26T05:01:42;2.40;;;1.23;;
16784;SDS011;8509;52.178;5.404;2023-06-26T05:04:13;1.65;;;1.15;;
16784;SDS011;8509;52.178;5.404;2023-06-26T05:06:40;0.80;;;0.80;;
16784;SDS011;8509;52.178;5.404;2023-06-26T05:09:06;1.27;;;1.17;;
16784;SDS011;8509;52.178;5.404;2023-06-26T05:11:32;1.42;;;1.15;;
16784;SDS011;8509;52.178;5.404;2023-06-26T05:13:57;2.60;;;0.75;;
16784;SDS011;8509;52.178;5.404;2023-06-26T05:16:23;1.10;;;0.77;;
16784;SDS011;8509;52.178;5.404;2023-06-26T05:18:49;0.57;;;0.57;;
16784;SDS011;8509;52.178;5.404;2023-06-26T05:21:15;0.38;;;0.38;;
16784;SDS011;8509;52.178;5.404;2023-06-26T05:23:41;0.93;;;0.93;;
16784;SDS011;8509;52.178;5.404;2023-06-26T05:26:10;0.40;;;0.40;;
16784;SDS011;8509;52.178;5.404;2023-06-26T05:28:38;1.00;;;0.85;;
16784;SDS011;8509;52.178;5.404;2023-06-26T05:31:04;0.70;;;0.68;;
16784;SDS011;8509;52.178;5.404;2023-06-26T05:33:30;1.00;;;0.75;;
16784;SDS011;8509;52.178;5.404;2023-06-26T05:35:59;1.00;;;0.90;;
16784;SDS011;8509;52.178;5.404;2023-06-26T05:38:27;0.63;;;0.52;;
16784;SDS011;8509;52.178;5.404;2023-06-26T05:40:52;1.38;;;0.60;;
16784;SDS011;8509;52.178;5.404;2023-06-26T05:43:18;0.40;;;0.40;;
16784;SDS011;8509;52.178;5.404;2023-06-26T05:45:46;0.80;;;0.80;;
16784;SDS011;8509;52.178;5.404;2023-06-26T05:48:13;1.52;;;1.08;;
16784;SDS011;8509;52.178;5.404;2023-06-26T05:50:39;0.93;;;0.50;;
16784;SDS011;8509;52.178;5.404;2023-06-26T05:53:07;0.30;;;0.30;;
16784;SDS011;8509;52.178;5.404;2023-06-26T05:55:33;0.77;;;0.63;;
16784;SDS011;8509;52.178;5.404;2023-06-26T05:58:02;2.60;;;1.00;;
16784;SDS011;8509;52.178;5.404;2023-06-26T06:00:28;0.40;;;0.40;;
16784;SDS011;8509;52.178;5.404;2023-06-26T06:02:54;0.65;;;0.47;;
16784;SDS011;8509;52.178;5.404;2023-06-26T06:05:22;0.70;;;0.55;;
16784;SDS011;8509;52.178;5.404;2023-06-26T06:07:48;1.13;;;0.47;;
16784;SDS011;8509;52.178;5.404;2023-06-26T06:10:15;1.05;;;0.82;;
16784;SDS011;8509;52.178;5.404;2023-06-26T06:12:41;0.60;;;0.47;;
16784;SDS011;8509;52.178;5.404;2023-06-26T06:15:06;0.60;;;0.60;;
16784;SDS011;8509;52.178;5.404;2023-06-26T06:17:33;0.57;;;0.55;;
16784;SDS011;8509;52.178;5.404;2023-06-26T06:19:58;1.05;;;0.60;;
16784;SDS011;8509;52.178;5.404;2023-06-26T06:22:25;1.52;;;0.85;;
16784;SDS011;8509;52.178;5.404;2023-06-26T06:24:52;1.27;;;0.80;;
16784;SDS011;8509;52.178;5.404;2023-06-26T06:27:18;0.65;;;0.50;;
16784;SDS011;8509;52.178;5.404;2023-06-26T06:29:44;2.55;;;0.70;;
16784;SDS011;8509;52.178;5.404;2023-06-26T06:32:09;2.45;;;0.93;;
16784;SDS011;8509;52.178;5.404;2023-06-26T06:34:36;0.43;;;0.43;;
16784;SDS011;8509;52.178;5.404;2023-06-26T06:37:02;0.70;;;0.70;;
16784;SDS011;8509;52.178;5.404;2023-06-26T06:39:28;0.73;;;0.60;;
16784;SDS011;8509;52.178;5.404;2023-06-26T06:41:54;1.52;;;0.88;;
16784;SDS011;8509;52.178;5.404;2023-06-26T06:44:19;2.05;;;0.73;;
16784;SDS011;8509;52.178;5.404;2023-06-26T06:46:45;0.50;;;0.50;;
16784;SDS011;8509;52.178;5.404;2023-06-26T06:49:12;1.23;;;0.50;;
16784;SDS011;8509;52.178;5.404;2023-06-26T06:51:38;1.08;;;0.75;;
16784;SDS011;8509;52.178;5.404;2023-06-26T06:54:03;0.43;;;0.40;;
16784;SDS011;8509;52.178;5.404;2023-06-26T06:56:29;0.50;;;0.50;;
16784;SDS011;8509;52.178;5.404;2023-06-26T06:58:55;0.68;;;0.50;;
16784;SDS011;8509;52.178;5.404;2023-06-26T07:01:20;0.30;;;0.30;;
16784;SDS011;8509;52.178;5.404;2023-06-26T07:03:46;0.38;;;0.38;;
16784;SDS011;8509;52.178;5.404;2023-06-26T07:06:14;1.42;;;0.77;;
16784;SDS011;8509;52.178;5.404;2023-06-26T07:08:40;0.52;;;0.45;;
16784;SDS011;8509;52.178;5.404;2023-06-26T07:11:05;0.73;;;0.40;;
16784;SDS011;8509;52.178;5.404;2023-06-26T07:13:31;1.20;;;0.50;;
16784;SDS011;8509;52.178;5.404;2023-06-26T07:15:56;0.75;;;0.75;;
16784;SDS011;8509;52.178;5.404;2023-06-26T07:18:22;1.88;;;0.90;;
16784;SDS011;8509;52.178;5.404;2023-06-26T07:20:48;1.10;;;0.77;;
16784;SDS011;8509;52.178;5.404;2023-06-26T07:23:13;1.38;;;1.02;;
16784;SDS011;8509;52.178;5.404;2023-06-26T07:25:39;2.08;;;1.10;;
16784;SDS011;8509;52.178;5.404;2023-06-26T07:28:11;0.57;;;0.50;;
16784;SDS011;8509;52.178;5.404;2023-06-26T07:30:37;1.10;;;0.70;;
16784;SDS011;8509;52.178;5.404;2023-06-26T07:33:03;1.20;;;0.73;;
16784;SDS011;8509;52.178;5.404;2023-06-26T07:35:29;0.82;;;0.70;;
16784;SDS011;8509;52.178;5.404;2023-06-26T07:37:55;0.82;;;0.80;;
16784;SDS011;8509;52.178;5.404;2023-06-26T07:40:20;3.10;;;0.85;;
16784;SDS011;8509;52.178;5.404;2023-06-26T07:42:46;0.75;;;0.50;;
16784;SDS011;8509;52.178;5.404;2023-06-26T07:45:12;1.70;;;0.75;;
16784;SDS011;8509;52.178;5.404;2023-06-26T07:47:39;1.70;;;0.90;;
16784;SDS011;8509;52.178;5.404;2023-06-26T07:50:06;0.77;;;0.70;;
16784;SDS011;8509;52.178;5.404;2023-06-26T07:52:32;1.42;;;0.85;;
16784;SDS011;8509;52.178;5.404;2023-06-26T07:55:05;1.20;;;1.02;;
16784;SDS011;8509;52.178;5.404;2023-06-26T07:57:45;1.95;;;1.00;;
16784;SDS011;8509;52.178;5.404;2023-06-26T08:00:14;1.48;;;0.77;;
16784;SDS011;8509;52.178;5.404;2023-06-26T08:02:43;0.88;;;0.70;;
16784;SDS011;8509;52.178;5.404;2023-06-26T08:05:08;0.65;;;0.60;;
16784;SDS011;8509;52.178;5.404;2023-06-26T08:07:36;2.10;;;0.90;;
16784;SDS011;8509;52.178;5.404;2023-06-26T08:10:02;0.90;;;0.73;;
16784;SDS011;8509;52.178;5.404;2023-06-26T08:12:37;2.10;;;1.00;;
16784;SDS011;8509;52.178;5.404;2023-06-26T08:15:06;1.65;;;0.70;;
16784;SDS011;8509;52.178;5.404;2023-06-26T08:17:32;1.85;;;0.73;;
16784;SDS011;8509;52.178;5.404;2023-06-26T08:20:00;1.75;;;0.80;;
16784;SDS011;8509;52.178;5.404;2023-06-26T08:22:39;2.88;;;1.17;;
16784;SDS011;8509;52.178;5.404;2023-06-26T08:25:14;3.10;;;1.10;;
16784;SDS011;8509;52.178;5.404;2023-06-26T08:27:44;0.55;;;0.55;;
16784;SDS011;8509;52.178;5.404;2023-06-26T08:30:13;4.82;;;0.88;;
16784;SDS011;8509;52.178;5.404;2023-06-26T08:32:43;2.90;;;0.95;;
16784;SDS011;8509;52.178;5.404;2023-06-26T08:35:08;1.00;;;0.75;;
16784;SDS011;8509;52.178;5.404;2023-06-26T08:37:35;1.25;;;1.08;;
16784;SDS011;8509;52.178;5.404;2023-06-26T08:40:02;0.50;;;0.50;;
16784;SDS011;8509;52.178;5.404;2023-06-26T08:42:29;0.88;;;0.63;;
16784;SDS011;8509;52.178;5.404;2023-06-26T08:44:55;1.60;;;1.15;;
16784;SDS011;8509;52.178;5.404;2023-06-26T08:47:20;1.05;;;0.85;;
16784;SDS011;8509;52.178;5.404;2023-06-26T08:52:35;0.85;;;0.40;;
16784;SDS011;8509;52.178;5.404;2023-06-26T08:55:07;0.88;;;0.50;;
16784;SDS011;8509;52.178;5.404;2023-06-26T08:57:36;2.00;;;0.90;;
16784;SDS011;8509;52.178;5.404;2023-06-26T09:00:03;1.98;;;0.60;;
16784;SDS011;8509;52.178;5.404;2023-06-26T09:02:30;3.50;;;0.65;;
16784;SDS011;8509;52.178;5.404;2023-06-26T09:04:56;0.85;;;0.50;;
16784;SDS011;8509;52.178;5.404;2023-06-26T09:07:22;2.80;;;0.93;;
16784;SDS011;8509;52.178;5.404;2023-06-26T09:09:48;1.15;;;0.63;;
16784;SDS011;8509;52.178;5.404;2023-06-26T09:12:14;2.38;;;0.88;;
16784;SDS011;8509;52.178;5.404;2023-06-26T09:14:40;3.03;;;0.70;;
16784;SDS011;8509;52.178;5.404;2023-06-26T09:17:06;2.20;;;0.50;;
16784;SDS011;8509;52.178;5.404;2023-06-26T09:19:32;0.30;;;0.30;;
16784;SDS011;8509;52.178;5.404;2023-06-26T09:22:00;0.30;;;0.30;;
16784;SDS011;8509;52.178;5.404;2023-06-26T09:24:26;2.22;;;0.90;;
16784;SDS011;8509;52.178;5.404;2023-06-26T09:26:52;2.95;;;1.27;;
16784;SDS011;8509;52.178;5.404;2023-06-26T09:29:19;1.40;;;0.60;;
16784;SDS011;8509;52.178;5.404;2023-06-26T09:31:45;3.10;;;0.82;;
16784;SDS011;8509;52.178;5.404;2023-06-26T09:34:10;1.10;;;0.60;;
16784;SDS011;8509;52.178;5.404;2023-06-26T09:36:36;0.30;;;0.30;;
16784;SDS011;8509;52.178;5.404;2023-06-26T09:39:03;0.50;;;0.50;;
16784;SDS011;8509;52.178;5.404;2023-06-26T09:41:33;0.35;;;0.35;;
16784;SDS011;8509;52.178;5.404;2023-06-26T09:44:00;0.65;;;0.50;;
16784;SDS011;8509;52.178;5.404;2023-06-26T09:46:28;0.47;;;0.40;;
16784;SDS011;8509;52.178;5.404;2023-06-26T09:48:58;1.17;;;0.60;;
16784;SDS011;8509;52.178;5.404;2023-06-26T09:51:24;4.03;;;0.70;;
16784;SDS011;8509;52.178;5.404;2023-06-26T09:53:49;0.45;;;0.45;;
16784;SDS011;8509;52.178;5.404;2023-06-26T09:56:15;0.43;;;0.28;;
16784;SDS011;8509;52.178;5.404;2023-06-26T09:58:53;0.45;;;0.45;;
16784;SDS011;8509;52.178;5.404;2023-06-26T10:01:22;0.45;;;0.40;;
16784;SDS011;8509;52.178;5.404;2023-06-26T10:03:48;0.40;;;0.40;;
16784;SDS011;8509;52.178;5.404;2023-06-26T10:06:14;0.47;;;0.40;;
16784;SDS011;8509;52.178;5.404;2023-06-26T10:08:44;0.30;;;0.30;;
16784;SDS011;8509;52.178;5.404;2023-06-26T10:11:11;0.85;;;0.65;;
16784;SDS011;8509;52.178;5.404;2023-06-26T10:13:42;0.73;;;0.73;;
16784;SDS011;8509;52.178;5.404;2023-06-26T10:16:11;0.35;;;0.35;;
16784;SDS011;8509;52.178;5.404;2023-06-26T10:18:38;4.07;;;0.43;;
16784;SDS011;8509;52.178;5.404;2023-06-26T10:21:05;0.75;;;0.50;;
16784;SDS011;8509;52.178;5.404;2023-06-26T10:23:33;0.50;;;0.40;;
16784;SDS011;8509;52.178;5.404;2023-06-26T10:26:01;0.40;;;0.40;;
16784;SDS011;8509;52.178;5.404;2023-06-26T10:28:28;1.00;;;0.50;;
16784;SDS011;8509;52.178;5.404;2023-06-26T10:30:56;0.35;;;0.35;;
16784;SDS011;8509;52.178;5.404;2023-06-26T10:33:25;1.27;;;0.47;;
16784;SDS011;8509;52.178;5.404;2023-06-26T10:35:53;0.47;;;0.40;;
16784;SDS011;8509;52.178;5.404;2023-06-26T10:38:18;0.63;;;0.55;;
16784;SDS011;8509;52.178;5.404;2023-06-26T10:40:47;1.77;;;0.68;;
16784;SDS011;8509;52.178;5.404;2023-06-26T10:43:15;0.30;;;0.30;;
16784;SDS011;8509;52.178;5.404;2023-06-26T10:45:45;1.88;;;0.40;;
16784;SDS011;8509;52.178;5.404;2023-06-26T10:48:17;0.32;;;0.32;;
16784;SDS011;8509;52.178;5.404;2023-06-26T10:50:43;0.30;;;0.30;;
16784;SDS011;8509;52.178;5.404;2023-06-26T10:55:59;0.35;;;0.35;;
16784;SDS011;8509;52.178;5.404;2023-06-26T11:03:39;0.20;;;0.20;;
16784;SDS011;8509;52.178;5.404;2023-06-26T11:06:29;0.43;;;0.32;;
16784;SDS011;8509;52.178;5.404;2023-06-26T11:09:06;0.63;;;0.28;;
16784;SDS011;8509;52.178;5.404;2023-06-26T11:14:18;0.28;;;0.28;;
16784;SDS011;8509;52.178;5.404;2023-06-26T11:16:45;0.45;;;0.45;;
16784;SDS011;8509;52.178;5.404;2023-06-26T11:19:17;0.35;;;0.35;;
16784;SDS011;8509;52.178;5.404;2023-06-26T11:21:44;0.47;;;0.47;;
16784;SDS011;8509;52.178;5.404;2023-06-26T11:24:11;0.55;;;0.50;;
16784;SDS011;8509;52.178;5.404;2023-06-26T11:26:41;0.50;;;0.50;;
16784;SDS011;8509;52.178;5.404;2023-06-26T11:29:11;0.20;;;0.20;;
16784;SDS011;8509;52.178;5.404;2023-06-26T11:31:37;0.50;;;0.50;;
16784;SDS011;8509;52.178;5.404;2023-06-26T11:34:06;0.20;;;0.20;;
16784;SDS011;8509;52.178;5.404;2023-06-26T11:36:35;0.28;;;0.28;;
16784;SDS011;8509;52.178;5.404;2023-06-26T11:39:02;0.30;;;0.20;;
16784;SDS011;8509;52.178;5.404;2023-06-26T11:41:31;0.20;;;0.20;;
16784;SDS011;8509;52.178;5.404;2023-06-26T11:44:04;1.95;;;0.47;;
16784;SDS011;8509;52.178;5.404;2023-06-26T11:46:31;0.20;;;0.20;;
16784;SDS011;8509;52.178;5.404;2023-06-26T11:48:57;0.50;;;0.43;;
16784;SDS011;8509;52.178;5.404;2023-06-26T11:51:23;0.22;;;0.22;;
16784;SDS011;8509;52.178;5.404;2023-06-26T11:53:51;0.30;;;0.30;;
16784;SDS011;8509;52.178;5.404;2023-06-26T11:56:18;0.30;;;0.30;;
16784;SDS011;8509;52.178;5.404;2023-06-26T11:58:57;1.25;;;0.52;;
16784;SDS011;8509;52.178;5.404;2023-06-26T12:01:26;0.40;;;0.40;;
16784;SDS011;8509;52.178;5.404;2023-06-26T12:04:03;0.20;;;0.20;;
16784;SDS011;8509;52.178;5.404;2023-06-26T12:06:30;0.63;;;0.52;;
16784;SDS011;8509;52.178;5.404;2023-06-26T12:08:58;0.20;;;0.20;;
16784;SDS011;8509;52.178;5.404;2023-06-26T12:11:26;0.47;;;0.40;;
16784;SDS011;8509;52.178;5.404;2023-06-26T12:13:54;0.22;;;0.20;;
16784;SDS011;8509;52.178;5.404;2023-06-26T12:16:20;0.50;;;0.50;;
16784;SDS011;8509;52.178;5.404;2023-06-26T12:18:46;0.80;;;0.65;;
16784;SDS011;8509;52.178;5.404;2023-06-26T12:24:08;0.20;;;0.20;;
16784;SDS011;8509;52.178;5.404;2023-06-26T12:26:34;0.47;;;0.40;;
16784;SDS011;8509;52.178;5.404;2023-06-26T12:29:07;0.65;;;0.20;;
16784;SDS011;8509;52.178;5.404;2023-06-26T12:31:39;0.65;;;0.65;;
16784;SDS011;8509;52.178;5.404;2023-06-26T12:34:13;0.28;;;0.28;;
16784;SDS011;8509;52.178;5.404;2023-06-26T12:36:49;0.30;;;0.30;;
16784;SDS011;8509;52.178;5.404;2023-06-26T12:39:16;0.20;;;0.20;;
16784;SDS011;8509;52.178;5.404;2023-06-26T12:44:28;0.20;;;0.20;;
16784;SDS011;8509;52.178;5.404;2023-06-26T12:46:56;0.68;;;0.40;;
16784;SDS011;8509;52.178;5.404;2023-06-26T12:49:30;0.30;;;0.30;;
16784;SDS011;8509;52.178;5.404;2023-06-26T12:52:00;0.20;;;0.20;;
16784;SDS011;8509;52.178;5.404;2023-06-26T12:54:27;0.90;;;0.45;;
16784;SDS011;8509;52.178;5.404;2023-06-26T12:56:53;0.63;;;0.30;;
16784;SDS011;8509;52.178;5.404;2023-06-26T12:59:20;0.25;;;0.25;;
16784;SDS011;8509;52.178;5.404;2023-06-26T13:01:47;0.32;;;0.32;;
16784;SDS011;8509;52.178;5.404;2023-06-26T13:04:14;0.40;;;0.40;;
16784;SDS011;8509;52.178;5.404;2023-06-26T13:06:41;0.10;;;0.10;;
16784;SDS011;8509;52.178;5.404;2023-06-26T13:09:07;0.35;;;0.35;;
16784;SDS011;8509;52.178;5.404;2023-06-26T13:11:33;0.20;;;0.20;;
16784;SDS011;8509;52.178;5.404;2023-06-26T13:14:01;0.20;;;0.20;;
16784;SDS011;8509;52.178;5.404;2023-06-26T13:16:26;0.20;;;0.20;;
16784;SDS011;8509;52.178;5.404;2023-06-26T13:18:52;1.95;;;0.38;;
16784;SDS011;8509;52.178;5.404;2023-06-26T13:21:18;0.60;;;0.30;;
16784;SDS011;8509;52.178;5.404;2023-06-26T13:23:44;0.20;;;0.20;;
16784;SDS011;8509;52.178;5.404;2023-06-26T13:26:10;0.20;;;0.20;;
16784;SDS011;8509;52.178;5.404;2023-06-26T13:28:36;7.13;;;1.10;;
16784;SDS011;8509;52.178;5.404;2023-06-26T13:31:02;0.70;;;0.30;;
16784;SDS011;8509;52.178;5.404;2023-06-26T13:33:28;6.07;;;0.80;;
16784;SDS011;8509;52.178;5.404;2023-06-26T13:35:54;0.75;;;0.75;;
16784;SDS011;8509;52.178;5.404;2023-06-26T13:38:20;0.50;;;0.28;;
16784;SDS011;8509;52.178;5.404;2023-06-26T13:40:52;0.30;;;0.30;;
16784;SDS011;8509;52.178;5.404;2023-06-26T13:43:20;0.20;;;0.20;;
16784;SDS011;8509;52.178;5.404;2023-06-26T13:45:46;0.20;;;0.20;;
16784;SDS011;8509;52.178;5.404;2023-06-26T13:48:15;0.20;;;0.20;;
16784;SDS011;8509;52.178;5.404;2023-06-26T13:50:41;0.20;;;0.20;;
16784;SDS011;8509;52.178;5.404;2023-06-26T13:53:08;0.20;;;0.20;;
16784;SDS011;8509;52.178;5.404;2023-06-26T13:55:35;0.38;;;0.20;;
16784;SDS011;8509;52.178;5.404;2023-06-26T13:58:06;0.38;;;0.38;;
16784;SDS011;8509;52.178;5.404;2023-06-26T14:00:32;0.40;;;0.40;;
16784;SDS011;8509;52.178;5.404;2023-06-26T14:03:02;0.30;;;0.30;;
16784;SDS011;8509;52.178;5.404;2023-06-26T14:05:34;0.20;;;0.20;;
16784;SDS011;8509;52.178;5.404;2023-06-26T14:08:01;0.20;;;0.20;;
16784;SDS011;8509;52.178;5.404;2023-06-26T14:10:29;0.20;;;0.20;;
16784;SDS011;8509;52.178;5.404;2023-06-26T14:12:55;0.30;;;0.30;;
16784;SDS011;8509;52.178;5.404;2023-06-26T14:15:21;0.43;;;0.30;;
16784;SDS011;8509;52.178;5.404;2023-06-26T14:17:46;0.25;;;0.20;;
16784;SDS011;8509;52.178;5.404;2023-06-26T14:20:16;0.20;;;0.20;;
16784;SDS011;8509;52.178;5.404;2023-06-26T14:22:45;0.20;;;0.20;;
16784;SDS011;8509;52.178;5.404;2023-06-26T14:25:11;0.32;;;0.32;;
16784;SDS011;8509;52.178;5.404;2023-06-26T14:27:38;0.55;;;0.25;;
16784;SDS011;8509;52.178;5.404;2023-06-26T14:30:04;0.22;;;0.22;;
16784;SDS011;8509;52.178;5.404;2023-06-26T14:32:30;1.10;;;0.47;;
16784;SDS011;8509;52.178;5.404;2023-06-26T14:34:56;1.17;;;0.22;;
16784;SDS011;8509;52.178;5.404;2023-06-26T14:37:23;0.10;;;0.10;;
16784;SDS011;8509;52.178;5.404;2023-06-26T14:39:49;0.20;;;0.20;;
16784;SDS011;8509;52.178;5.404;2023-06-26T14:42:15;0.17;;;0.17;;
16784;SDS011;8509;52.178;5.404;2023-06-26T14:44:41;0.47;;;0.38;;
16784;SDS011;8509;52.178;5.404;2023-06-26T14:47:06;0.32;;;0.32;;
16784;SDS011;8509;52.178;5.404;2023-06-26T14:49:32;0.52;;;0.40;;
16784;SDS011;8509;52.178;5.404;2023-06-26T14:51:58;0.20;;;0.20;;
16784;SDS011;8509;52.178;5.404;2023-06-26T14:54:24;0.57;;;0.55;;
16784;SDS011;8509;52.178;5.404;2023-06-26T14:56:50;0.30;;;0.30;;
16784;SDS011;8509;52.178;5.404;2023-06-26T14:59:17;0.20;;;0.20;;
16784;SDS011;8509;52.178;5.404;2023-06-26T15:01:44;0.47;;;0.47;;
16784;SDS011;8509;52.178;5.404;2023-06-26T15:04:09;0.25;;;0.25;;
16784;SDS011;8509;52.178;5.404;2023-06-26T15:06:35;0.47;;;0.47;;
16784;SDS011;8509;52.178;5.404;2023-06-26T15:09:01;0.30;;;0.30;;
16784;SDS011;8509;52.178;5.404;2023-06-26T15:11:27;0.93;;;0.80;;
16784;SDS011;8509;52.178;5.404;2023-06-26T15:13:54;0.20;;;0.20;;
16784;SDS011;8509;52.178;5.404;2023-06-26T15:16:21;0.35;;;0.35;;
16784;SDS011;8509;52.178;5.404;2023-06-26T15:18:47;0.32;;;0.30;;
16784;SDS011;8509;52.178;5.404;2023-06-26T15:21:13;0.47;;;0.47;;
16784;SDS011;8509;52.178;5.404;2023-06-26T15:23:38;0.70;;;0.57;;